Time;durP1;ratioP1;P1;durP2;ratioP2;P2;SDS_P1;SDS_P2;PMS_P1;PMS_P2;Temp;Humidity;BMP_temperature;BMP_pressure;BME280_temperature;BME280_humidity;BME280_pressure;Samples;Min_cycle;Max_cycle;Signal;HPM_P1;HPM_P2
2023/03/25 00:00:51;;;;;;;0.35;0.13;;;;;;;6.42;100.00;95220.47;5104922;28;20039;-76
2023/03/25 00:03:18;;;;;;;1.00;0.40;;;;;;;6.42;100.00;95225.59;5099165;28;20485;-76
2023/03/25 00:05:46;;;;;;;3.10;0.50;;;;;;;6.46;100.00;95214.22;5105218;28;20051;-76
2023/03/25 00:08:12;;;;;;;2.60;0.60;;;;;;;6.52;100.00;95224.16;5098019;28;20055;-76
2023/03/25 00:10:39;;;;;;;2.40;0.30;;;;;;;6.59;100.00;95228.06;5104855;28;20047;-76
2023/03/25 00:13:07;;;;;;;2.40;0.30;;;;;;;6.47;100.00;95219.28;5103639;28;20062;-76
2023/03/25 00:15:33;;;;;;;2.70;0.52;;;;;;;6.48;100.00;95218.34;5103466;28;20134;-76
2023/03/25 00:18:00;;;;;;;1.42;0.32;;;;;;;6.52;100.00;95212.13;5099032;28;20044;-76
2023/03/25 00:20:27;;;;;;;1.98;0.47;;;;;;;6.55;100.00;95211.97;5100951;28;20476;-77
2023/03/25 00:22:55;;;;;;;2.00;0.65;;;;;;;6.56;100.00;95207.63;5100944;28;20040;-76
2023/03/25 00:25:23;;;;;;;1.27;0.40;;;;;;;6.51;100.00;95205.31;5105508;28;20043;-76
2023/03/25 00:27:50;;;;;;;3.05;0.77;;;;;;;6.47;100.00;95218.44;5102842;28;20039;-76
2023/03/25 00:30:18;;;;;;;2.35;0.52;;;;;;;6.42;100.00;95216.16;5103551;28;20043;-76
2023/03/25 00:32:48;;;;;;;5.20;0.75;;;;;;;6.46;100.00;95216.81;5104119;28;20455;-76
2023/03/25 00:35:16;;;;;;;1.88;0.47;;;;;;;6.49;100.00;95214.06;5094843;28;20098;-76
2023/03/25 00:37:44;;;;;;;1.20;0.40;;;;;;;6.38;100.00;95199.22;5103957;28;20456;-76
2023/03/25 00:40:12;;;;;;;2.47;0.70;;;;;;;6.48;100.00;95192.63;5103517;28;20101;-75
2023/03/25 00:42:48;;;;;;;2.38;0.75;;;;;;;6.38;100.00;95183.78;5095598;28;20481;-75
2023/03/25 00:45:15;;;;;;;2.97;0.77;;;;;;;6.40;100.00;95184.53;5105788;28;20047;-75
2023/03/25 00:47:42;;;;;;;4.63;0.88;;;;;;;6.36;100.00;95177.88;5099379;28;20044;-75
2023/03/25 00:50:09;;;;;;;3.55;0.80;;;;;;;6.30;100.00;95167.94;5100413;28;20051;-76
2023/03/25 00:52:36;;;;;;;3.58;1.00;;;;;;;6.36;100.00;95180.47;5100409;28;20055;-75
2023/03/25 00:55:03;;;;;;;2.85;1.05;;;;;;;6.29;100.00;95179.97;5099853;28;20044;-75
2023/03/25 00:57:31;;;;;;;4.10;1.10;;;;;;;6.27;100.00;95174.09;5102146;28;20055;-76
2023/03/25 00:59:58;;;;;;;5.40;1.10;;;;;;;6.17;100.00;95184.97;5100176;28;20094;-75
2023/03/25 01:02:25;;;;;;;7.10;0.45;;;;;;;6.22;100.00;95183.78;5102807;28;20051;-76
2023/03/25 01:04:51;;;;;;;4.13;0.93;;;;;;;6.14;100.00;95188.53;5104168;28;20517;-75
2023/03/25 01:07:19;;;;;;;2.25;0.70;;;;;;;6.11;100.00;95187.88;5099337;28;20055;-75
2023/03/25 01:09:46;;;;;;;1.08;0.50;;;;;;;6.07;100.00;95194.91;5104637;28;20051;-75
2023/03/25 01:12:12;;;;;;;1.52;0.63;;;;;;;6.13;100.00;95206.63;5101396;28;20468;-75
2023/03/25 01:14:41;;;;;;;2.58;0.68;;;;;;;6.25;100.00;95203.38;5091592;28;20054;-75
2023/03/25 01:17:07;;;;;;;3.53;0.77;;;;;;;6.36;100.00;95184.78;5105711;28;20048;-75
2023/03/25 01:19:34;;;;;;;5.07;0.73;;;;;;;6.32;100.00;95163.53;5103619;28;20039;-76
2023/03/25 01:22:01;;;;;;;2.45;0.65;;;;;;;6.29;100.00;95182.53;5101381;28;20074;-76
2023/03/25 01:24:27;;;;;;;3.13;0.73;;;;;;;6.33;100.00;95164.38;5093307;28;20047;-75
2023/03/25 01:26:54;;;;;;;1.88;0.68;;;;;;;6.20;100.00;95152.22;5096129;28;20048;-76
2023/03/25 01:29:22;;;;;;;4.07;0.80;;;;;;;6.27;100.00;95166.38;5098948;28;20043;-76
2023/03/25 01:31:50;;;;;;;3.08;0.95;;;;;;;6.29;100.00;95168.84;5100648;28;20382;-76
2023/03/25 01:34:17;;;;;;;2.90;0.98;;;;;;;6.28;100.00;95173.19;5101680;28;20071;-76
2023/03/25 01:36:45;;;;;;;2.13;0.80;;;;;;;6.21;100.00;95178.75;5098643;28;20074;-76
2023/03/25 01:39:15;;;;;;;2.72;0.98;;;;;;;6.16;100.00;95173.88;5096918;28;20444;-76
2023/03/25 01:41:43;;;;;;;4.50;0.80;;;;;;;6.18;100.00;95173.75;5094933;28;20054;-75
2023/03/25 01:44:26;;;;;;;6.25;1.02;;;;;;;6.11;100.00;95175.00;5099763;28;20048;-75
2023/03/25 01:46:55;;;;;;;3.83;0.75;;;;;;;6.06;100.00;95160.66;5098746;28;20486;-75
2023/03/25 01:49:25;;;;;;;3.88;0.90;;;;;;;6.11;100.00;95155.28;5099910;28;20044;-76
2023/03/25 01:51:56;;;;;;;1.25;0.50;;;;;;;6.15;100.00;95156.75;5105675;28;20049;-75
2023/03/25 01:54:23;;;;;;;2.72;1.05;;;;;;;6.14;100.00;95149.13;5103270;28;20047;-76
2023/03/25 01:56:51;;;;;;;3.63;0.82;;;;;;;6.02;100.00;95153.22;5097706;28;20059;-76
2023/03/25 01:59:23;;;;;;;1.48;0.60;;;;;;;6.11;100.00;95155.28;5105252;28;20510;-76
2023/03/25 02:01:50;;;;;;;;;;;;;;;6.05;100.00;95150.47;5097889;28;20422;-75
2023/03/25 02:04:37;;;;;;;4.35;0.98;;;;;;;6.09;100.00;95158.84;5107503;28;20390;-75
2023/03/25 02:07:07;;;;;;;4.53;1.00;;;;;;;6.14;100.00;95154.28;5097189;28;20052;-76
2023/03/25 02:09:34;;;;;;;3.58;0.73;;;;;;;6.14;100.00;95160.25;5104630;28;20040;-76
2023/03/25 02:12:00;;;;;;;5.88;0.88;;;;;;;6.16;100.00;95155.03;5096894;28;20051;-76
2023/03/25 02:14:31;;;;;;;4.50;0.93;;;;;;;6.16;100.00;95168.72;5096565;28;20054;-76
2023/03/25 02:17:09;;;;;;;6.53;0.95;;;;;;;6.06;100.00;95164.97;5099931;28;20052;-76
2023/03/25 02:20:07;;;;;;;7.50;1.27;;;;;;;6.10;100.00;95175.94;5102987;28;20052;-76
2023/03/25 02:23:02;;;;;;;5.97;1.55;;;;;;;6.06;100.00;95194.09;5089390;28;20044;-76
2023/03/25 02:25:44;;;;;;;3.70;0.90;;;;;;;6.06;100.00;95188.94;5103974;28;20047;-76
2023/03/25 02:28:24;;;;;;;7.77;1.17;;;;;;;6.07;100.00;95197.47;5098004;28;20044;-76
2023/03/25 02:31:21;;;;;;;2.65;0.60;;;;;;;5.92;100.00;95206.84;5087112;28;20097;-76
2023/03/25 02:34:28;;;;;;;3.47;0.65;;;;;;;5.93;100.00;95218.81;5060005;28;20113;-76
2023/03/25 02:37:19;;;;;;;1.08;0.60;;;;;;;5.84;100.00;95211.53;5087376;28;20048;-75
2023/03/25 02:39:51;;;;;;;2.72;0.52;;;;;;;5.82;100.00;95219.34;5094538;28;20043;-76
2023/03/25 02:42:22;;;;;;;;;;;;;;;5.79;100.00;95192.97;5100367;28;20503;-75
2023/03/25 02:44:56;;;;;;;1.80;0.50;;;;;;;5.78;100.00;95189.59;5095780;28;19930;-75
2023/03/25 02:47:26;;;;;;;1.63;0.40;;;;;;;5.81;100.00;95179.13;5097705;28;20039;-76
2023/03/25 02:49:57;;;;;;;0.82;0.30;;;;;;;5.82;100.00;95167.09;5099359;28;20055;-75
2023/03/25 02:52:27;;;;;;;1.50;0.50;;;;;;;5.81;100.00;95165.44;5098084;28;20094;-76
2023/03/25 02:55:00;;;;;;;1.60;0.40;;;;;;;5.81;100.00;95162.88;5097700;28;20043;-75
2023/03/25 02:57:28;;;;;;;1.52;0.47;;;;;;;5.87;100.00;95164.31;5087655;28;20044;-75
2023/03/25 02:59:57;;;;;;;0.68;0.40;;;;;;;5.82;100.00;95169.66;5098595;28;20051;-76
2023/03/25 03:02:27;;;;;;;0.38;0.30;;;;;;;5.88;100.00;95168.53;5088941;28;20048;-75
2023/03/25 03:04:56;;;;;;;0.80;0.30;;;;;;;5.94;100.00;95158.78;5101082;28;20052;-75
2023/03/25 03:07:25;;;;;;;1.45;0.38;;;;;;;5.79;100.00;95155.25;5099968;28;20437;-76
2023/03/25 03:10:00;;;;;;;0.45;0.28;;;;;;;5.75;100.00;95142.66;5096067;28;20051;-75
2023/03/25 03:12:55;;;;;;;0.47;0.20;;;;;;;5.74;100.00;95149.53;5097547;28;20050;-75
2023/03/25 03:15:35;;;;;;;1.40;0.30;;;;;;;5.67;100.00;95153.31;5103546;28;20047;-75
2023/03/25 03:18:09;;;;;;;1.40;0.70;;;;;;;5.65;100.00;95149.22;5096868;28;20130;-75
2023/03/25 03:20:42;;;;;;;0.80;0.50;;;;;;;5.57;100.00;95144.47;5098899;28;20058;-76
2023/03/25 03:23:16;;;;;;;0.30;0.20;;;;;;;5.59;100.00;95140.91;5103740;28;20056;-76
2023/03/25 03:25:50;;;;;;;0.90;0.40;;;;;;;5.54;100.00;95144.63;5093969;28;20117;-75
2023/03/25 03:28:24;;;;;;;1.85;0.45;;;;;;;5.56;100.00;95145.38;5103318;28;20054;-75
2023/03/25 03:30:56;;;;;;;2.05;0.32;;;;;;;5.55;100.00;95151.41;5090778;28;20097;-75
2023/03/25 03:33:30;;;;;;;0.22;0.10;;;;;;;5.54;100.00;95147.19;5093198;28;20058;-75
2023/03/25 03:36:00;;;;;;;2.38;0.45;;;;;;;5.48;100.00;95145.78;5090475;28;20071;-75
2023/03/25 03:38:34;;;;;;;1.10;0.30;;;;;;;5.54;100.00;95148.03;5092945;28;20126;-75
2023/03/25 03:41:05;;;;;;;0.40;0.30;;;;;;;5.48;100.00;95150.91;5098339;28;20059;-75
2023/03/25 03:43:38;;;;;;;1.33;0.35;;;;;;;5.38;100.00;95147.19;5106211;28;20043;-75
2023/03/25 03:46:10;;;;;;;3.63;0.65;;;;;;;5.29;100.00;95142.50;5101224;28;20055;-74
2023/03/25 03:48:40;;;;;;;1.65;0.40;;;;;;;5.23;100.00;95145.41;5101807;28;20046;-74
2023/03/25 03:51:12;;;;;;;0.40;0.20;;;;;;;5.30;100.00;95145.03;5102404;28;20052;-75
2023/03/25 03:53:42;;;;;;;2.30;0.40;;;;;;;5.26;100.00;95161.47;5105259;28;20054;-74
2023/03/25 03:56:13;;;;;;;0.40;0.17;;;;;;;5.30;100.00;95165.56;5101701;28;20048;-74
2023/03/25 03:58:41;;;;;;;2.00;0.32;;;;;;;5.27;100.00;95162.31;5098426;28;20052;-75
2023/03/25 04:01:11;;;;;;;1.10;0.50;;;;;;;5.25;100.00;95159.00;5096298;28;20514;-75
2023/03/25 04:03:43;;;;;;;1.08;0.45;;;;;;;5.29;100.00;95168.19;5100105;28;20066;-75
2023/03/25 04:06:17;;;;;;;4.53;0.90;;;;;;;5.29;100.00;95166.44;5097586;28;20067;-74
2023/03/25 04:08:52;;;;;;;2.30;0.68;;;;;;;5.30;100.00;95168.13;5096019;28;20035;-75
2023/03/25 04:11:24;;;;;;;5.95;0.63;;;;;;;5.41;100.00;95174.44;5102310;28;20196;-74
2023/03/25 04:13:53;;;;;;;1.30;0.47;;;;;;;5.47;100.00;95158.72;5096603;28;20410;-74
2023/03/25 04:16:20;;;;;;;0.82;0.40;;;;;;;5.45;100.00;95168.22;5099522;28;20063;-75
2023/03/25 04:18:47;;;;;;;3.47;0.95;;;;;;;5.43;100.00;95168.31;5103261;28;20046;-74
2023/03/25 04:21:16;;;;;;;4.25;0.80;;;;;;;5.54;100.00;95175.47;5102792;28;20048;-75
2023/03/25 04:23:44;;;;;;;2.33;0.73;;;;;;;5.54;100.00;95185.72;5099762;28;20046;-75
2023/03/25 04:26:11;;;;;;;1.00;0.50;;;;;;;5.44;100.00;95182.81;5095415;28;20138;-75
2023/03/25 04:28:40;;;;;;;1.67;0.60;;;;;;;5.45;100.00;95179.34;5097466;28;20066;-75
2023/03/25 04:31:14;;;;;;;9.52;1.05;;;;;;;5.47;100.00;95166.41;5094640;28;20080;-75
2023/03/25 04:33:40;;;;;;;2.92;0.82;;;;;;;5.39;100.00;95160.84;5095120;28;20056;-75
2023/03/25 04:36:09;;;;;;;5.63;0.70;;;;;;;5.48;100.00;95166.31;5094706;28;20059;-75
2023/03/25 04:38:36;;;;;;;8.70;1.20;;;;;;;5.43;100.00;95175.19;5105191;28;20066;-75
2023/03/25 04:41:05;;;;;;;2.20;0.75;;;;;;;5.39;100.00;95178.81;5094868;28;20131;-75
2023/03/25 04:43:32;;;;;;;5.07;1.00;;;;;;;5.44;100.00;95176.84;5103698;28;20094;-75
2023/03/25 04:46:01;;;;;;;5.55;1.00;;;;;;;5.44;100.00;95166.56;5094684;28;20070;-75
2023/03/25 04:48:29;;;;;;;1.65;0.52;;;;;;;5.46;100.00;95169.91;5104268;28;20075;-75
2023/03/25 04:50:56;;;;;;;3.78;0.80;;;;;;;5.43;100.00;95163.16;5102136;28;20039;-75
2023/03/25 04:53:23;;;;;;;2.85;0.90;;;;;;;5.34;100.00;95168.81;5095090;28;20054;-75
2023/03/25 04:55:50;;;;;;;1.52;0.68;;;;;;;5.33;100.00;95183.34;5098238;28;20048;-75
2023/03/25 04:58:16;;;;;;;2.65;0.75;;;;;;;5.29;100.00;95193.88;5095731;28;20417;-75
2023/03/25 05:00:44;;;;;;;3.75;0.93;;;;;;;5.17;100.00;95192.75;5099386;28;20051;-75
2023/03/25 05:03:14;;;;;;;3.72;1.55;;;;;;;5.26;100.00;95196.59;5089653;28;20418;-75
2023/03/25 05:05:41;;;;;;;2.95;0.90;;;;;;;5.43;100.00;95199.13;5102404;28;20047;-75
2023/03/25 05:08:08;;;;;;;6.10;1.33;;;;;;;5.53;100.00;95205.44;5103005;28;20047;-75
2023/03/25 05:10:37;;;;;;;3.33;0.88;;;;;;;5.55;100.00;95208.75;5105923;28;20100;-75
2023/03/25 05:13:06;;;;;;;10.68;1.45;;;;;;;5.53;100.00;95204.63;5099836;28;20067;-75
2023/03/25 05:15:38;;;;;;;2.13;1.00;;;;;;;5.54;100.00;95216.56;5096367;28;20525;-75
2023/03/25 05:18:05;;;;;;;4.22;1.13;;;;;;;5.53;100.00;95204.63;5100628;28;20143;-75
2023/03/25 05:20:33;;;;;;;5.22;1.17;;;;;;;5.56;100.00;95214.72;5086012;28;20098;-75
2023/03/25 05:23:00;;;;;;;8.10;1.15;;;;;;;5.57;100.00;95213.84;5104085;28;20530;-75
2023/03/25 05:25:27;;;;;;;3.20;1.10;;;;;;;5.58;100.00;95223.19;5096918;28;20409;-75
2023/03/25 05:27:54;;;;;;;5.00;1.33;;;;;;;5.61;100.00;95224.78;5096207;28;20134;-75
2023/03/25 05:30:20;;;;;;;7.13;1.27;;;;;;;5.54;100.00;95222.50;5093380;28;20056;-75
2023/03/25 05:32:49;;;;;;;12.07;1.15;;;;;;;5.51;100.00;95235.50;5103993;28;20498;-75
2023/03/25 05:35:17;;;;;;;2.92;1.40;;;;;;;5.56;100.00;95215.56;5100228;28;20111;-75
2023/03/25 05:37:45;;;;;;;5.18;1.67;;;;;;;5.68;100.00;95218.41;5097538;28;20048;-75
2023/03/25 05:40:12;;;;;;;3.95;0.90;;;;;;;5.48;100.00;95220.25;5101124;28;20052;-75
2023/03/25 05:42:47;;;;;;;3.38;1.20;;;;;;;5.54;100.00;95232.78;5104688;28;20506;-75
2023/03/25 05:45:15;;;;;;;3.60;1.02;;;;;;;5.49;100.00;95228.81;5100715;28;20052;-75
2023/03/25 05:47:42;;;;;;;4.10;1.30;;;;;;;5.54;100.00;95237.94;5099278;28;20116;-75
2023/03/25 05:50:10;;;;;;;4.60;1.13;;;;;;;5.56;100.00;95242.97;5101039;28;20562;-75
2023/03/25 05:52:40;;;;;;;3.60;1.38;;;;;;;5.64;100.00;95238.28;5103650;28;20071;-75
2023/03/25 05:55:13;;;;;;;8.68;1.95;;;;;;;5.53;100.00;95253.44;5095879;28;20044;-74
2023/03/25 05:57:39;;;;;;;;;;;;;;;5.44;100.00;95252.13;5095502;28;20732;-75
2023/03/25 06:00:08;;;;;;;4.78;1.38;;;;;;;5.40;100.00;95242.09;5099356;28;19924;-75
2023/03/25 06:02:37;;;;;;;6.70;1.33;;;;;;;5.46;100.00;95260.63;5100165;28;20075;-75
2023/03/25 06:05:04;;;;;;;6.22;1.42;;;;;;;5.52;100.00;95254.31;5099889;28;20414;-75
2023/03/25 06:07:31;;;;;;;3.08;0.68;;;;;;;5.50;100.00;95258.72;5101479;28;20055;-75
2023/03/25 06:09:58;;;;;;;5.80;1.45;;;;;;;5.51;100.00;95258.63;5091747;28;20047;-75
2023/03/25 06:12:26;;;;;;;5.72;0.90;;;;;;;5.44;100.00;95267.56;5097072;28;20047;-75
2023/03/25 06:14:53;;;;;;;3.33;1.25;;;;;;;5.49;100.00;95245.06;5087731;28;20044;-75
2023/03/25 06:17:21;;;;;;;4.30;1.27;;;;;;;5.60;100.00;95244.50;5105642;28;20124;-75
2023/03/25 06:19:48;;;;;;;9.30;1.15;;;;;;;5.50;100.00;95246.69;5098546;28;20078;-75
2023/03/25 06:22:15;;;;;;;4.88;1.13;;;;;;;5.45;100.00;95248.69;5096967;28;20060;-74
2023/03/25 06:24:42;;;;;;;5.30;1.02;;;;;;;5.47;100.00;95248.59;5096651;28;20079;-73
2023/03/25 06:27:13;;;;;;;5.40;1.00;;;;;;;5.50;100.00;95254.41;5100129;28;20048;-73
2023/03/25 06:29:41;;;;;;;5.32;1.10;;;;;;;5.56;100.00;95246.41;5100079;28;20047;-74
2023/03/25 06:32:09;;;;;;;3.28;0.90;;;;;;;5.54;100.00;95255.91;5091191;28;20048;-75
2023/03/25 06:34:35;;;;;;;5.63;2.53;;;;;;;5.63;100.00;95243.50;5098572;28;20047;-75
2023/03/25 06:37:02;;;;;;;4.00;1.33;;;;;;;5.74;100.00;95251.47;5096320;28;20474;-75
2023/03/25 06:39:30;;;;;;;2.58;0.80;;;;;;;5.83;100.00;95256.97;5104062;28;20043;-75
2023/03/25 06:41:56;;;;;;;4.65;1.52;;;;;;;5.92;100.00;95257.41;5095240;28;20044;-74
2023/03/25 06:44:23;;;;;;;4.15;1.23;;;;;;;6.00;100.00;95248.38;5093755;28;20047;-75
2023/03/25 06:46:51;;;;;;;1.23;0.60;;;;;;;5.87;100.00;95259.38;5099396;28;20054;-75
2023/03/25 06:49:17;;;;;;;6.57;1.23;;;;;;;5.82;100.00;95272.47;5095998;28;20048;-75
2023/03/25 06:51:44;;;;;;;3.17;0.82;;;;;;;5.82;100.00;95281.03;5107375;28;20050;-75
2023/03/25 06:54:11;;;;;;;2.97;1.00;;;;;;;5.73;100.00;95272.94;5104656;28;20065;-75
2023/03/25 06:56:37;;;;;;;4.68;1.42;;;;;;;5.67;100.00;95278.38;5100392;28;20043;-75
2023/03/25 06:59:04;;;;;;;2.10;0.70;;;;;;;5.63;100.00;95272.56;5105367;28;20512;-75
2023/03/25 07:01:31;;;;;;;3.05;1.00;;;;;;;5.72;100.00;95277.25;5102511;28;20053;-75
2023/03/25 07:03:58;;;;;;;5.03;1.15;;;;;;;5.78;100.00;95274.38;5105037;28;20516;-75
2023/03/25 07:06:25;;;;;;;3.63;0.88;;;;;;;5.82;100.00;95272.47;5095418;28;20048;-75
2023/03/25 07:08:52;;;;;;;8.07;0.82;;;;;;;5.87;100.00;95278.19;5093879;28;20055;-75
2023/03/25 07:11:25;;;;;;;1.02;0.50;;;;;;;5.94;100.00;95273.63;5097631;28;20055;-75
2023/03/25 07:13:52;;;;;;;3.55;0.80;;;;;;;5.94;100.00;95265.91;5097678;28;20455;-75
2023/03/25 07:16:19;;;;;;;4.40;0.82;;;;;;;5.90;100.00;95264.38;5099902;28;20417;-76
2023/03/25 07:18:46;;;;;;;2.45;0.63;;;;;;;5.99;100.00;95271.63;5094543;28;20040;-76
2023/03/25 07:21:14;;;;;;;2.92;0.40;;;;;;;5.99;100.00;95269.03;5103417;28;20075;-75
2023/03/25 07:23:40;;;;;;;2.30;0.60;;;;;;;6.03;100.00;95275.69;5100574;28;20138;-75
2023/03/25 07:26:07;;;;;;;6.32;0.93;;;;;;;6.06;100.00;95275.53;5092650;28;20055;-75
2023/03/25 07:28:34;;;;;;;3.97;0.50;;;;;;;6.03;100.00;95275.69;5094237;28;20059;-75
2023/03/25 07:31:00;;;;;;;1.77;0.57;;;;;;;6.10;100.00;95279.59;5093736;28;20270;-75
2023/03/25 07:33:27;;;;;;;2.75;0.98;;;;;;;6.26;100.00;95279.59;5096640;28;20508;-75
2023/03/25 07:35:53;;;;;;;1.05;0.30;;;;;;;6.43;100.00;95284.69;5094925;28;20052;-75
2023/03/25 07:38:21;;;;;;;1.17;0.50;;;;;;;6.64;100.00;95284.44;5094855;28;20051;-75
2023/03/25 07:40:48;;;;;;;2.35;0.77;;;;;;;6.74;100.00;95291.53;5096425;28;20044;-74
2023/03/25 07:43:14;;;;;;;2.17;0.88;;;;;;;6.97;100.00;95290.28;5098936;28;20055;-75
2023/03/25 07:45:41;;;;;;;3.58;0.75;;;;;;;7.01;100.00;95278.88;5097609;28;20525;-75
2023/03/25 07:48:12;;;;;;;2.40;0.60;;;;;;;7.03;100.00;95286.50;5102983;28;20165;-75
2023/03/25 07:50:39;;;;;;;2.58;0.65;;;;;;;7.11;100.00;95280.91;5105447;28;20036;-75
2023/03/25 07:53:05;;;;;;;1.42;0.52;;;;;;;7.05;100.00;95283.88;5103343;28;20055;-75
2023/03/25 07:55:33;;;;;;;1.92;0.50;;;;;;;7.18;100.00;95282.22;5104831;28;20050;-75
2023/03/25 07:58:01;;;;;;;1.20;0.50;;;;;;;7.31;100.00;95278.06;5104660;28;20054;-75
2023/03/25 08:00:28;;;;;;;1.10;0.40;;;;;;;7.51;100.00;95282.03;5108269;28;20047;-76
2023/03/25 08:02:54;;;;;;;3.33;0.98;;;;;;;7.35;100.00;95279.53;5102304;28;20047;-75
2023/03/25 08:05:21;;;;;;;2.67;0.75;;;;;;;7.17;100.00;95280.59;5108567;28;20047;-70
2023/03/25 08:07:47;;;;;;;4.25;0.77;;;;;;;7.16;100.00;95278.94;5096809;28;20487;-75
2023/03/25 08:10:15;;;;;;;2.40;0.60;;;;;;;7.06;100.00;95280.38;5103206;28;20113;-75
2023/03/25 08:12:43;;;;;;;3.20;0.75;;;;;;;6.85;100.00;95287.53;5098207;28;20150;-75
2023/03/25 08:15:11;;;;;;;4.65;1.15;;;;;;;6.68;100.00;95293.63;5107779;28;20060;-75
2023/03/25 08:17:38;;;;;;;4.65;0.93;;;;;;;6.54;100.00;95295.22;5100690;28;20048;-75
2023/03/25 08:20:06;;;;;;;1.33;0.52;;;;;;;6.49;100.00;95293.81;5101061;28;20055;-75
2023/03/25 08:22:33;;;;;;;1.48;0.65;;;;;;;6.28;100.00;95286.31;5091293;28;20051;-75
2023/03/25 08:24:59;;;;;;;3.42;0.70;;;;;;;6.24;100.00;95284.00;5100609;28;20051;-75
2023/03/25 08:27:26;;;;;;;0.90;0.30;;;;;;;6.39;100.00;95283.19;5090459;28;20055;-75
2023/03/25 08:29:55;;;;;;;1.52;0.88;;;;;;;6.24;100.00;95282.25;5102567;28;20040;-77
2023/03/25 08:32:21;;;;;;;15.13;0.75;;;;;;;6.22;100.00;95285.81;5103992;28;20405;-75
2023/03/25 08:37:17;;;;;;;1.90;0.80;;;;;;;6.23;100.00;95298.63;5085473;28;20623;-76
2023/03/25 08:39:43;;;;;;;1.38;0.63;;;;;;;6.13;100.00;95294.88;5074046;28;20064;-76
2023/03/25 08:42:11;;;;;;;2.38;1.02;;;;;;;6.13;100.00;95299.19;5068494;28;20049;-75
2023/03/25 08:44:38;;;;;;;2.63;0.75;;;;;;;5.94;100.00;95305.28;5077451;28;20056;-73
2023/03/25 08:47:05;;;;;;;1.23;0.40;;;;;;;5.92;100.00;95309.66;5067741;28;20056;-73
2023/03/25 08:49:32;;;;;;;0.90;0.45;;;;;;;5.90;100.00;95303.75;5069502;28;20044;-73
2023/03/25 08:52:00;;;;;;;2.83;0.30;;;;;;;5.83;100.00;95300.66;5066223;28;20045;-74
2023/03/25 08:54:29;;;;;;;0.50;0.20;;;;;;;5.95;100.00;95293.25;5066393;28;20041;-74
2023/03/25 08:56:55;;;;;;;0.40;0.30;;;;;;;6.11;100.00;95288.97;5072531;28;20040;-73
2023/03/25 08:59:22;;;;;;;1.30;0.70;;;;;;;6.21;100.00;95274.72;5068080;28;20424;-74
2023/03/25 09:01:49;;;;;;;2.10;0.30;;;;;;;6.27;100.00;95276.13;5071605;28;20060;-73
2023/03/25 09:04:15;;;;;;;0.40;0.25;;;;;;;6.49;100.00;95268.09;5067817;28;20059;-75
2023/03/25 09:06:42;;;;;;;0.88;0.47;;;;;;;6.43;100.00;95271.00;5073050;28;20044;-75
2023/03/25 09:09:10;;;;;;;0.55;0.35;;;;;;;6.43;100.00;95281.28;5074489;28;20061;-75
2023/03/25 09:11:38;;;;;;;0.45;0.25;;;;;;;6.48;100.00;95277.53;5075769;28;20081;-76
2023/03/25 09:14:05;;;;;;;1.02;0.60;;;;;;;6.50;100.00;95277.47;5074358;28;20056;-76
2023/03/25 09:16:32;;;;;;;0.77;0.30;;;;;;;6.59;100.00;95274.38;5070415;28;20052;-76
2023/03/25 09:18:59;;;;;;;2.25;0.63;;;;;;;6.70;100.00;95266.06;5073235;28;20448;-76
2023/03/25 09:21:25;;;;;;;4.35;0.63;;;;;;;6.81;100.00;95273.19;5069068;28;20045;-76
2023/03/25 09:23:52;;;;;;;2.85;0.52;;;;;;;6.89;100.00;95265.84;5069942;28;20041;-75
2023/03/25 09:26:19;;;;;;;1.25;0.60;;;;;;;6.83;100.00;95261.91;5075296;28;20048;-76
2023/03/25 09:28:46;;;;;;;0.82;0.20;;;;;;;6.82;100.00;95255.06;5073665;28;20048;-76
2023/03/25 09:31:13;;;;;;;1.20;0.60;;;;;;;6.83;100.00;95264.47;5039499;28;20054;-76
2023/03/25 09:33:40;;;;;;;0.52;0.35;;;;;;;6.72;100.00;95271.97;5017494;28;20390;-76
2023/03/25 09:36:07;;;;;;;1.15;0.30;;;;;;;6.52;100.00;95276.44;5021049;28;20050;-76
2023/03/25 09:38:34;;;;;;;2.72;0.93;;;;;;;6.58;100.00;95259.03;5026891;28;20052;-76
2023/03/25 09:41:05;;;;;;;1.20;0.60;;;;;;;6.46;100.00;95274.22;5026856;28;20042;-76
2023/03/25 09:43:41;;;;;;;0.80;0.52;;;;;;;6.61;100.00;95280.28;5027250;28;20136;-75
2023/03/25 09:46:09;;;;;;;0.88;0.52;;;;;;;6.66;100.00;95270.53;5026619;28;20042;-75
2023/03/25 09:48:37;;;;;;;1.80;0.70;;;;;;;6.69;100.00;95261.84;5014161;28;20125;-76
2023/03/25 09:51:06;;;;;;;1.30;0.47;;;;;;;6.77;100.00;95246.78;5013800;28;20053;-76
2023/03/25 09:53:38;;;;;;;1.05;0.60;;;;;;;6.81;100.00;95253.41;5014159;28;20053;-72
2023/03/25 09:56:11;;;;;;;1.48;0.55;;;;;;;7.03;100.00;95253.84;5012940;28;20080;-76
2023/03/25 09:58:41;;;;;;;0.82;0.52;;;;;;;7.23;100.00;95264.75;5011369;28;20057;-76
2023/03/25 10:01:33;;;;;;;0.90;0.40;;;;;;;7.26;100.00;95260.25;5013664;28;20707;-76
2023/03/25 10:04:29;;;;;;;1.38;0.47;;;;;;;7.41;100.00;95260.28;5013946;28;20054;-76
2023/03/25 10:07:06;;;;;;;1.85;0.47;;;;;;;7.51;100.00;95264.81;5009777;28;20112;-76
2023/03/25 10:09:43;;;;;;;1.83;0.70;;;;;;;7.69;100.00;95269.81;5007824;28;20408;-75
2023/03/25 10:12:26;;;;;;;1.67;0.50;;;;;;;7.78;100.00;95251.22;5011475;28;20065;-76
2023/03/25 10:15:03;;;;;;;0.35;0.35;;;;;;;8.20;100.00;95254.69;5013850;28;20038;-77
2023/03/25 10:17:40;;;;;;;1.23;0.52;;;;;;;8.43;100.00;95267.03;5005373;28;20049;-76
2023/03/25 10:20:14;;;;;;;2.00;0.57;;;;;;;8.67;100.00;95269.81;5010965;28;20073;-76
2023/03/25 10:22:58;;;;;;;0.93;0.40;;;;;;;8.59;100.00;95272.06;5013530;28;20050;-76
2023/03/25 10:25:30;;;;;;;3.58;0.75;;;;;;;8.32;100.00;95268.59;5013151;28;20053;-76
2023/03/25 10:27:58;;;;;;;1.65;0.85;;;;;;;8.55;100.00;95270.59;5013329;28;20050;-69
2023/03/25 10:30:27;;;;;;;0.75;0.47;;;;;;;8.67;100.00;95268.97;5012256;28;20057;-75
2023/03/25 10:32:57;;;;;;;1.25;0.50;;;;;;;8.57;100.00;95268.75;5013345;28;20759;-75
2023/03/25 10:35:27;;;;;;;1.15;0.40;;;;;;;8.67;100.00;95274.16;5012580;28;20046;-76
2023/03/25 10:37:58;;;;;;;0.45;0.30;;;;;;;8.31;100.00;95265.19;5012971;28;20054;-76
2023/03/25 10:40:28;;;;;;;2.40;0.65;;;;;;;8.25;100.00;95276.69;5012847;28;20068;-76
2023/03/25 10:43:16;;;;;;;1.20;0.60;;;;;;;8.12;100.00;95267.22;5012892;28;20522;-75
2023/03/25 10:45:44;;;;;;;1.40;0.50;;;;;;;8.18;100.00;95274.59;5010376;28;20125;-75
2023/03/25 10:48:18;;;;;;;3.13;1.45;;;;;;;8.22;100.00;95276.88;5003111;28;20053;-75
2023/03/25 10:50:46;;;;;;;1.67;0.85;;;;;;;8.20;100.00;95280.50;5012898;28;20053;-76
2023/03/25 10:53:20;;;;;;;2.05;0.80;;;;;;;8.15;100.00;95278.19;5012960;28;20050;-76
2023/03/25 10:55:52;;;;;;;1.88;0.57;;;;;;;8.33;100.00;95277.97;5012336;28;20050;-76
2023/03/25 10:58:20;;;;;;;1.65;0.60;;;;;;;8.53;100.00;95277.63;5012102;28;20061;-75
2023/03/25 11:00:47;;;;;;;4.97;0.57;;;;;;;8.82;100.00;95280.09;5012280;28;20052;-75
2023/03/25 11:03:20;;;;;;;1.40;0.50;;;;;;;8.78;100.00;95278.63;5012382;28;20690;-75
2023/03/25 11:05:48;;;;;;;1.67;0.60;;;;;;;8.86;100.00;95278.97;5012197;28;20507;-75
2023/03/25 11:08:16;;;;;;;2.67;0.90;;;;;;;8.65;100.00;95287.16;5012693;28;20057;-75
2023/03/25 11:10:50;;;;;;;1.83;0.77;;;;;;;9.05;100.00;95263.97;5012589;28;20046;-75
2023/03/25 11:13:20;;;;;;;1.55;0.55;;;;;;;9.00;100.00;95268.59;5011232;28;20050;-75
2023/03/25 11:15:48;;;;;;;3.58;0.73;;;;;;;9.25;100.00;95280.75;5011996;28;20469;-76
2023/03/25 11:18:24;;;;;;;4.20;1.00;;;;;;;9.45;100.00;95275.13;5012363;28;20050;-75
2023/03/25 11:20:53;;;;;;;2.47;0.93;;;;;;;9.59;100.00;95257.84;5011960;28;20425;-76
2023/03/25 11:23:25;;;;;;;3.22;0.70;;;;;;;9.61;100.00;95258.56;5012272;28;20062;-76
2023/03/25 11:25:53;;;;;;;3.60;1.00;;;;;;;9.65;100.00;95262.59;5011598;28;20046;-75
2023/03/25 11:28:32;;;;;;;2.10;0.73;;;;;;;9.75;100.00;95253.28;5012142;28;20488;-75
2023/03/25 11:31:16;;;;;;;2.38;0.60;;;;;;;9.88;100.00;95251.53;5011470;28;20046;-75
2023/03/25 11:33:46;;;;;;;1.40;0.63;;;;;;;10.03;100.00;95254.00;5008973;28;20148;-75
2023/03/25 11:36:22;;;;;;;3.60;1.25;;;;;;;10.14;100.00;95262.66;5011326;28;20077;-75
2023/03/25 11:38:55;;;;;;;1.88;0.63;;;;;;;10.06;100.00;95267.56;5011907;28;20405;-75
2023/03/25 11:41:22;;;;;;;;;;;;;;;9.82;100.00;95270.03;5008168;28;20048;-75
2023/03/25 11:43:49;;;;;;;;;;;;;;;9.87;100.00;95259.41;5008747;28;20410;-75
2023/03/25 11:46:16;;;;;;;;;;;;;;;9.53;100.00;95284.94;5010037;28;19922;-75
2023/03/25 11:48:45;;;;;;;;;;;;;;;9.18;100.00;95282.06;5012665;28;19945;-75